Station: Edithburgh  

  Atmospheric Gas Attenuation - ITU Rec 676-11   ----------------- dB/100km -----------------
Date Time Temp RH % AH g/m3 Dew Point Wind Direction Speed kph Gust kph Barometer mB Rainfall Since 9am 24GHz 47GHz 76GHz 122GHz 134GHz 241GHz
04/09 04:20 13.5 89 10.41 11.7 17 28 1016.7 0.6 23.5 29.2 47.7 125.4 123.9 427.7
04/09 04:10 13.3 90 10.4 11.7 15 24 1016.6 0.6 23.5 29.2 47.7 125.6 124.1 428.3
04/09 04:00 13.2 90 10.33 11.6 15 22 1016.6 0.6 23.3 29.1 47.5 124.9 123.3 425.3
04/09 03:50 13.2 91 10.45 11.8 17 24 1016.5 0.6 23.6 29.3 48.0 126.3 125.0 431.3
04/09 03:40 13.1 92 10.5 11.8 17 26 1016.8 0.6 23.7 29.5 48.3 127.1 125.9 434.4
04/09 03:30 13.2 93 10.68 12.1 15 24 1016.9 0.6 24.1 29.7 49.0 129.0 128.3 442.9
04/09 03:20 13.2 93 10.68 12.1 15 22 1017.1 0.6 24.1 29.7 49.0 129.1 128.3 443.0
04/09 03:10 12.9 92 10.37 11.6 11 19 1017.5 0.6 23.4 29.3 47.9 126.0 124.4 429.3
04/09 03:00 13.1 90 10.27 11.5 17 28 1017.9 0.6 23.2 29.1 47.4 124.6 122.7 423.4
04/09 02:50 13.4 90 10.46 11.8 17 20 1017.9 0.6 23.6 29.3 48.0 126.3 124.9 431.1
04/09 02:40 13.3 89 10.28 11.5 13 19 1017.7 0.6 23.2 29.0 47.3 124.3 122.5 422.7
04/09 02:30 13.3 89 10.28 11.5 13 24 1018.1 0.6 23.2 29.1 47.3 124.4 122.5 422.8
04/09 02:20 13.5 88 10.29 11.6 15 24 1018.4 0.6 23.2 29.0 47.2 124.2 122.4 422.3
04/09 02:10 13.5 85 9.94 11 15 22 1018.4 0.6 22.5 28.4 45.7 120.2 117.5 405.1
04/09 02:00 13.6 83 9.77 10.8 17 24 1018.3 0.6 22.1 28.1 45.0 118.1 115.0 396.3
04/09 01:50 13.4 82 9.53 10.5 17 20 1018.3 0.6 21.6 27.7 44.1 115.7 111.9 385.7
04/09 01:40 13.4 81 9.42 10.2 17 24 1018.3 0.6 21.4 27.6 43.6 114.5 110.4 380.4
04/09 01:30 13.4 78 9.07 9.6 17 24 1018.5 0.6 20.6 27.0 42.2 110.7 105.7 363.8
04/09 01:20 13.3 79 9.13 9.7 13 17 1018.8 0.6 20.7 27.1 42.5 111.5 106.6 367.2
04/09 01:10 13.5 77 9.01 9.6 15 24 1018.9 0.6 20.5 26.9 41.9 109.9 104.7 360.6
04/09 01:00 13.1 79 9.02 9.5 13 20 1018.9 0.6 20.5 27.0 42.1 110.6 105.4 362.9
04/09 00:50 13.1 79 9.02 9.5 11 17 1019.1 0.6 20.5 27.0 42.1 110.6 105.4 363.0
04/09 00:40 13.2 80 9.19 9.8 13 19 1019.2 0.6 20.9 27.3 42.8 112.3 107.6 370.6
04/09 00:30 13.3 80 9.24 9.9 13 19 1019.1 0.6 21.0 27.3 42.9 112.7 108.2 372.5
04/09 00:20 13.1 82 9.36 10.1 13 19 1019.3 0.6 21.2 27.6 43.6 114.4 110.1 379.3
04/09 00:10 12.4 88 9.62 10.5 9 15 1019.5 0.6 21.8 28.3 45.1 118.4 114.8 395.5
04/09 00:00 11.2 91 9.23 9.8 6 13 1019.7 0.6 21.1 28.0 44.1 115.8 111.1 382.4
03/09 23:50 11.1 91 9.17 9.7 6 9 1020.1 0.6 20.9 27.9 43.9 115.3 110.4 380.1
03/09 23:40 11.3 91 9.28 9.9 6 7 1020.2 0.6 21.2 28.1 44.3 116.3 111.7 384.5
03/09 23:30 11.3 90 9.18 9.7 7 7 1020.5 0.6 21.0 27.9 43.9 115.2 110.3 379.7
03/09 23:20 11.5 89 9.19 9.8 6 9 1020.5 0.6 21.0 27.9 43.8 115.0 110.2 379.2
03/09 23:10 11.6 89 9.25 9.9 6 7 1020.5 0.6 21.1 27.9 44.0 115.5 110.9 381.7
03/09 23:00 11.6 89 9.25 9.9 6 6 1020.6 0.6 21.1 27.9 44.0 115.5 110.9 381.7
03/09 22:50 11.7 88 9.21 9.8 6 7 1020.7 0.6 21.0 27.8 43.8 114.9 110.2 379.3
03/09 22:40 11.9 87 9.22 9.8 6 9 1020.7 0.6 21.0 27.8 43.7 114.7 110.0 378.8
03/09 22:30 11 90 9.01 9.4 7 9 1020.8 0.6 20.6 27.7 43.3 113.7 108.4 372.9
03/09 22:20 10.9 89 8.85 9.2 6 7 1020.9 0.6 20.3 27.5 42.7 112.0 106.3 365.6
03/09 22:10 10.7 89 8.74 9 6 7 1020.9 0.6 20.0 27.4 42.3 111.1 105.0 361.2
03/09 22:00 11.4 89 9.14 9.7 7 9 1020.9 0.6 20.9 27.8 43.7 114.6 109.6 377.4
03/09 21:50 11.4 90 9.24 9.8 7 9 1021 0.6 21.1 28.0 44.1 115.7 111.0 382.3
03/09 21:40 11.4 90 9.24 9.8 7 9 1021.1 0.6 21.1 28.0 44.1 115.8 111.1 382.4
03/09 21:30 11.6 89 9.25 9.9 6 6 1021.1 0.6 21.1 27.9 44.0 115.6 110.9 381.9
03/09 21:20 11.8 89 9.37 10 6 7 1021.1 0.6 21.3 28.1 44.4 116.6 112.3 386.8
03/09 21:10 11.9 90 9.53 10.3 0 0 1021.1 0.6 21.7 28.3 45.0 118.3 114.4 394.1
03/09 21:00 11.8 91 9.58 10.4 0 0 1021.1 0.6 21.8 28.5 45.3 119.0 115.3 397.1
03/09 20:50 11.9 90 9.53 10.3 2 2 1021 0.6 21.7 28.3 45.0 118.3 114.4 394.1
03/09 20:40 11.9 90 9.53 10.3 4 6 1021 0.6 21.7 28.3 45.0 118.3 114.4 394.1
03/09 20:30 11.8 90 9.47 10.2 4 4 1020.9 0.6 21.5 28.3 44.8 117.8 113.7 391.6
03/09 20:20 11.7 90 9.41 10.1 4 4 1020.9 0.6 21.4 28.2 44.6 117.2 113.0 389.2
03/09 20:10 11.6 90 9.36 10 2 4 1020.8 0.6 21.3 28.1 44.5 116.8 112.4 387.2
03/09 20:00 11.5 90 9.3 9.9 4 6 1020.8 0.6 21.2 28.1 44.3 116.3 111.7 384.7
03/09 19:50 11.4 90 9.24 9.8 2 6 1020.7 0.6 21.1 28.0 44.1 115.7 111.0 382.2
03/09 19:40 11.5 89 9.19 9.7 0 0 1020.6 0.6 21.0 27.9 43.8 115.0 110.2 379.3
03/09 19:30 11 90 9.01 9.4 0 0 1020.4 0.6 20.6 27.7 43.3 113.7 108.3 372.8
03/09 19:20 10.9 90 8.95 9.3 0 0 1020.5 0.6 20.5 27.6 43.1 113.1 107.6 370.4
03/09 19:10 10.5 89 8.63 8.7 0 0 1020.4 0.6 19.8 27.2 42.0 110.1 103.7 356.6
03/09 19:00 10.3 88 8.43 8.4 0 0 1020.3 0.6 19.4 26.9 41.2 108.1 101.2 347.8
03/09 18:50 10.7 86 8.45 8.4 0 0 1020.1 0.6 19.4 26.8 41.1 107.7 100.9 346.9
03/09 18:40 10.9 85 8.46 8.5 0 0 1020.1 0.6 19.4 26.8 41.0 107.6 100.8 346.5
03/09 18:30 11.3 82 8.37 8.3 0 2 1019.9 0.6 19.2 26.5 40.4 106.0 99.1 340.4
03/09 18:20 12 80 8.53 8.7 2 4 1019.8 0.6 19.5 26.6 40.7 106.8 100.3 344.9
03/09 18:10 12.5 76 8.36 8.4 4 4 1019.7 0.6 19.1 26.1 39.8 104.3 97.4 334.7
03/09 18:00 12.7 75 8.35 8.4 4 6 1019.6 0.6 19.1 26.0 39.6 103.9 97.0 333.3
03/09 17:50 12.7 76 8.46 8.6 4 6 1019.7 0.6 19.3 26.2 40.1 105.1 98.5 338.5
03/09 17:40 12.8 76 8.51 8.7 6 9 1019.7 0.6 19.4 26.3 40.2 105.5 99.0 340.4
03/09 17:30 13.2 74 8.5 8.7 7 11 1019.6 0.6 19.4 26.1 40.0 104.8 98.4 338.2
03/09 17:20 13.5 74 8.66 9 9 13 1019.5 0.6 19.7 26.3 40.5 106.2 100.1 344.3
03/09 17:10 14 72 8.68 9 11 15 1019.5 0.6 19.7 26.2 40.3 105.7 99.7 343.1
03/09 17:00 14.7 70 8.81 9.3 11 17 1019.4 0.6 20.0 26.2 40.5 106.1 100.5 346.0
03/09 16:50 15.1 69 8.9 9.5 9 15 1019.3 0.6 20.2 26.2 40.6 106.6 101.2 348.4
03/09 16:40 15 67 8.59 8.9 13 20 1019.3 0.6 19.5 25.8 39.4 103.4 97.3 334.6
03/09 16:30 15.3 67 8.75 9.2 11 19 1019.2 0.6 19.8 25.9 39.9 104.7 99.0 340.6
03/09 16:20 15.6 67 8.91 9.5 11 17 1019.2 0.6 20.2 26.1 40.4 106.0 100.7 346.6
03/09 16:10 15.4 66 8.67 9.1 13 20 1019.2 0.6 19.7 25.8 39.5 103.7 97.8 336.5
03/09 16:00 15.6 67 8.91 9.5 13 20 1019.3 0.6 20.2 26.1 40.4 106.0 100.7 346.6
03/09 15:50 14.9 67 8.54 8.8 15 20 1019.3 0.6 19.4 25.7 39.3 103.0 96.7 332.7
03/09 15:40 15.5 67 8.86 9.4 13 19 1019.2 0.6 20.1 26.0 40.2 105.6 100.1 344.7
03/09 15:30 15.3 65 8.49 8.8 15 20 1019.2 0.6 19.3 25.5 38.9 101.9 95.6 328.7
03/09 15:20 15.8 64 8.61 9 15 19 1019.1 0.6 19.5 25.6 39.1 102.5 96.5 332.0
03/09 15:10 15.6 67 8.91 9.5 17 24 1019 0.6 20.2 26.1 40.4 106.0 100.6 346.5
03/09 15:00 15.4 68 8.93 9.5 19 24 1019 0.6 20.2 26.2 40.6 106.4 101.2 348.3
03/09 14:50 15.3 67 8.75 9.2 20 26 1018.9 0.6 19.8 25.9 39.9 104.7 98.9 340.5
03/09 14:40 15.4 66 8.67 9.1 19 26 1018.9 0.6 19.7 25.8 39.5 103.7 97.8 336.4
03/09 14:30 15.7 66 8.83 9.4 17 24 1018.9 0.6 20.0 25.9 40.0 105.0 99.5 342.4
03/09 14:20 15.5 66 8.72 9.2 19 24 1018.8 0.6 19.8 25.8 39.7 104.1 98.3 338.2
03/09 14:10 15.6 66 8.78 9.3 20 32 1018.7 0.6 19.9 25.9 39.9 104.6 98.9 340.5
03/09 14:00 16 64 8.72 9.2 20 26 1018.7 0.6 19.7 25.7 39.4 103.4 97.6 336.1
03/09 13:50 16.6 70 9.89 11.1 20 26 1018.6 0.6 22.2 27.4 43.8 115.0 112.2 387.1
03/09 13:40 15.8 65 8.75 9.2 22 30 1018.5 0.6 19.8 25.8 39.6 104.0 98.3 338.2
03/09 13:30 16.3 69 9.57 10.6 20 28 1018.6 0.6 21.5 26.9 42.6 112.0 108.4 373.6
03/09 13:20 16.4 69 9.63 10.7 19 28 1018.6 0.6 21.6 27.0 42.8 112.5 109.0 375.9
03/09 13:10 16.3 68 9.43 10.4 20 32 1018.6 0.6 21.2 26.7 42.1 110.5 106.5 367.1
03/09 13:00 15.8 67 9.02 9.7 22 30 1018.7 0.6 20.4 26.2 40.7 106.8 101.8 350.6
03/09 12:50 16.1 70 9.59 10.6 22 32 1018.7 0.6 21.6 27.0 42.8 112.5 108.9 375.5
03/09 12:40 15.7 68 9.1 9.8 26 35 1018.8 0.6 20.6 26.4 41.1 107.8 103.0 354.7
03/09 12:30 16 67 9.13 9.9 24 32 1018.7 0.6 20.6 26.3 41.0 107.7 103.0 354.7
03/09 12:20 16 68 9.26 10.1 26 35 1018.7 0.6 20.9 26.5 41.6 109.1 104.7 360.7
03/09 12:10 16.4 69 9.63 10.7 26 33 1018.8 0.6 21.6 27.0 42.8 112.5 109.0 376.0
03/09 12:00 16.3 70 9.71 10.8 26 33 1018.8 0.6 21.8 27.2 43.2 113.5 110.2 380.2
03/09 11:50 16.3 70 9.71 10.8 24 32 1018.8 0.6 21.8 27.2 43.2 113.5 110.2 380.2

Last Refresh: 04-Sep-2026 04:31:09

Bureau of Meteorology